createdAt,value
2023-01-19T00:01:44.338Z,19.13
2023-01-19T00:04:15.404Z,18.23
2023-01-19T00:06:43.821Z,19.37
2023-01-19T00:09:12.761Z,20.13
2023-01-19T00:11:43.679Z,19.33
2023-01-19T00:14:12.176Z,17.97
2023-01-19T00:16:43.031Z,19.17
2023-01-19T00:19:14.416Z,22.97
2023-01-19T00:21:42.724Z,20.23
2023-01-19T00:24:14.385Z,18.67
2023-01-19T00:26:44.928Z,18.37
2023-01-19T00:29:14.081Z,18.90
2023-01-19T00:31:43.509Z,21.37
2023-01-19T00:34:12.134Z,19.67
2023-01-19T00:36:42.376Z,18.50
2023-01-19T00:39:10.682Z,20.37
2023-01-19T00:41:56.350Z,20.17
2023-01-19T00:44:26.086Z,16.77
2023-01-19T00:46:54.514Z,20.13
2023-01-19T00:49:23.295Z,16.97
2023-01-19T00:51:53.980Z,18.97
2023-01-19T00:54:23.578Z,21.23
2023-01-19T00:56:51.702Z,20.03
2023-01-19T00:59:19.803Z,21.43
2023-01-19T01:01:48.415Z,21.67
2023-01-19T01:04:16.901Z,18.07
2023-01-19T01:06:45.323Z,18.37
2023-01-19T01:09:15.791Z,20.17
2023-01-19T01:11:44.605Z,18.93
2023-01-19T01:14:14.344Z,18.50
2023-01-19T01:16:43.317Z,19.77
2023-01-19T01:19:11.781Z,18.63
2023-01-19T01:21:41.707Z,21.10
2023-01-19T01:24:11.208Z,16.47
2023-01-19T01:26:41.181Z,19.13
2023-01-19T01:29:09.631Z,19.20
2023-01-19T01:31:37.870Z,17.57
2023-01-19T01:34:07.620Z,20.87
2023-01-19T01:36:36.236Z,17.17
2023-01-19T01:39:05.179Z,15.53
2023-01-19T01:41:33.925Z,17.23
2023-01-19T01:44:08.438Z,17.60
2023-01-19T01:46:36.941Z,15.60
2023-01-19T01:49:09.902Z,18.80
2023-01-19T01:51:43.704Z,17.87
2023-01-19T01:54:21.776Z,20.27
2023-01-19T01:56:58.842Z,17.80
2023-01-19T01:59:35.074Z,15.43
2023-01-19T02:02:25.405Z,15.57
2023-01-19T02:04:57.719Z,20.23
2023-01-19T02:07:50.951Z,17.63
2023-01-19T02:10:38.292Z,16.73
2023-01-19T02:13:21.893Z,19.50
2023-01-19T02:15:55.737Z,17.57
2023-01-19T02:18:26.076Z,16.43
2023-01-19T02:21:04.876Z,16.83
2023-01-19T02:23:50.778Z,20.20
2023-01-19T02:26:23.595Z,20.43
2023-01-19T02:28:55.209Z,17.20
2023-01-19T02:31:23.488Z,22.63
2023-01-19T02:33:52.476Z,14.47
2023-01-19T02:36:26.645Z,15.03
2023-01-19T02:38:58.708Z,17.33
2023-01-19T02:41:30.673Z,20.53
2023-01-19T02:44:00.792Z,17.10
2023-01-19T02:46:29.067Z,17.03
2023-01-19T02:49:01.715Z,19.50
2023-01-19T02:51:30.612Z,17.50
2023-01-19T02:54:39.337Z,15.53
2023-01-19T02:57:38.796Z,17.93
2023-01-19T03:00:23.544Z,18.07
2023-01-19T03:03:07.022Z,18.67
2023-01-19T03:05:53.600Z,17.97
2023-01-19T03:08:34.911Z,19.97
2023-01-19T03:11:07.172Z,18.23
2023-01-19T03:13:44.229Z,14.53
2023-01-19T03:16:21.848Z,16.60
2023-01-19T03:18:55.425Z,22.33
2023-01-19T03:21:28.382Z,17.73
2023-01-19T03:24:03.377Z,13.87
2023-01-19T03:26:42.018Z,18.50
2023-01-19T03:29:13.754Z,15.27
2023-01-19T03:31:44.919Z,16.37
2023-01-19T03:34:16.350Z,19.03
2023-01-19T03:36:46.933Z,17.83
2023-01-19T03:39:19.825Z,16.13
2023-01-19T03:41:53.900Z,16.10
2023-01-19T03:44:23.719Z,14.33
2023-01-19T03:46:53.068Z,20.60
2023-01-19T03:49:21.442Z,18.00
2023-01-19T03:51:49.912Z,17.17
2023-01-19T03:54:18.436Z,16.87
2023-01-19T03:56:47.366Z,16.47
2023-01-19T03:59:18.112Z,16.60
2023-01-19T04:01:47.587Z,17.67
2023-01-19T04:04:17.019Z,18.70
2023-01-19T04:06:45.551Z,20.57
2023-01-19T04:09:14.028Z,19.13
2023-01-19T04:11:42.608Z,18.20
2023-01-19T04:14:11.381Z,20.73
2023-01-19T04:16:41.454Z,19.33
2023-01-19T04:19:09.879Z,20.60
2023-01-19T04:21:38.108Z,18.33
2023-01-19T04:24:07.270Z,18.40
2023-01-19T04:26:35.739Z,21.00
2023-01-19T04:29:05.833Z,20.60
2023-01-19T04:31:35.838Z,17.20
2023-01-19T04:34:05.689Z,19.10
2023-01-19T04:36:33.909Z,21.40
2023-01-19T04:39:02.223Z,20.23
2023-01-19T04:41:31.224Z,20.80
2023-01-19T04:43:59.312Z,18.97
2023-01-19T04:46:27.772Z,17.80
2023-01-19T04:48:55.988Z,21.37
2023-01-19T04:51:25.717Z,22.60
2023-01-19T04:53:55.574Z,19.40
2023-01-19T04:56:25.590Z,25.20
2023-01-19T04:58:53.917Z,26.63
2023-01-19T05:01:22.201Z,23.57
2023-01-19T05:03:50.717Z,25.23
2023-01-19T05:06:19.021Z,18.70
2023-01-19T05:08:48.975Z,24.87
2023-01-19T05:11:17.494Z,21.77
2023-01-19T05:13:45.826Z,24.10
2023-01-19T05:16:14.421Z,24.43
2023-01-19T05:18:43.115Z,24.17
2023-01-19T05:21:11.388Z,24.23
2023-01-19T05:23:39.681Z,25.67
2023-01-19T05:26:10.539Z,23.53
2023-01-19T05:28:39.024Z,24.60
2023-01-19T05:31:08.939Z,31.03
2023-01-19T05:33:37.636Z,21.83
2023-01-19T05:36:07.656Z,21.30
2023-01-19T05:38:36.321Z,26.67
2023-01-19T05:41:04.727Z,26.57
2023-01-19T05:43:37.078Z,24.90
2023-01-19T05:46:13.595Z,23.57
2023-01-19T05:48:42.224Z,26.67
2023-01-19T05:51:10.438Z,24.60
2023-01-19T05:53:40.122Z,21.50
2023-01-19T05:56:11.273Z,25.03
2023-01-19T05:58:43.491Z,25.93
2023-01-19T06:01:11.980Z,25.17
2023-01-19T06:03:41.174Z,23.77
2023-01-19T06:06:09.879Z,24.10
2023-01-19T06:08:38.345Z,27.03
2023-01-19T06:11:08.715Z,24.37
2023-01-19T06:13:37.293Z,24.83
2023-01-19T06:16:08.828Z,28.30
2023-01-19T06:18:37.328Z,28.03
2023-01-19T06:21:06.869Z,29.40
2023-01-19T06:23:37.008Z,23.77
2023-01-19T06:26:05.805Z,27.70
2023-01-19T06:28:33.967Z,31.17
2023-01-19T06:31:02.282Z,29.80
2023-01-19T06:33:34.894Z,29.80
2023-01-19T06:36:03.554Z,28.97
2023-01-19T06:38:32.866Z,29.57
2023-01-19T06:41:03.246Z,24.63
2023-01-19T06:43:32.522Z,27.13
2023-01-19T06:46:02.458Z,25.10
2023-01-19T06:48:35.412Z,27.47
2023-01-19T06:51:03.722Z,24.67
2023-01-19T06:53:32.437Z,25.33
2023-01-19T06:56:02.052Z,25.03
2023-01-19T06:58:32.860Z,26.30
2023-01-19T07:01:05.013Z,21.93
2023-01-19T07:03:36.111Z,25.17
2023-01-19T07:06:06.959Z,25.27
2023-01-19T07:08:35.730Z,26.10
2023-01-19T07:11:26.842Z,26.23
2023-01-19T07:13:56.983Z,25.13
2023-01-19T07:16:26.313Z,26.40
2023-01-19T07:18:58.038Z,22.43
2023-01-19T07:21:29.305Z,22.53
2023-01-19T07:23:58.660Z,20.50
2023-01-19T07:26:29.422Z,23.43
2023-01-19T07:28:57.756Z,23.57
2023-01-19T07:31:25.959Z,23.87
2023-01-19T07:33:56.410Z,21.03
2023-01-19T07:36:24.855Z,22.47
2023-01-19T07:38:53.495Z,22.03
2023-01-19T07:41:22.603Z,20.03
2023-01-19T07:44:01.736Z,23.23
2023-01-19T07:46:30.543Z,22.10
2023-01-19T07:49:00.825Z,19.60
2023-01-19T07:51:30.299Z,24.37
2023-01-19T07:53:58.792Z,19.87
2023-01-19T07:56:27.972Z,19.83
2023-01-19T07:58:56.466Z,23.60
2023-01-19T08:01:25.336Z,24.50
2023-01-19T08:03:53.691Z,19.70
2023-01-19T08:06:25.143Z,21.33
2023-01-19T08:08:54.266Z,24.10
2023-01-19T08:11:22.987Z,20.77
2023-01-19T08:13:51.973Z,21.17
2023-01-19T08:16:20.483Z,23.50
2023-01-19T08:18:48.979Z,24.10
2023-01-19T08:21:17.918Z,20.97
2023-01-19T08:23:53.966Z,23.13
2023-01-19T08:26:27.546Z,22.57
2023-01-19T08:28:56.838Z,23.73
2023-01-19T08:31:27.161Z,24.10
2023-01-19T08:33:55.915Z,22.30
2023-01-19T08:36:25.357Z,21.07
2023-01-19T08:39:00.169Z,25.23
2023-01-19T08:41:29.715Z,21.90
2023-01-19T08:44:01.573Z,39.33
2023-01-19T08:46:30.194Z,29.40
2023-01-19T08:49:00.453Z,22.07
2023-01-19T08:51:28.860Z,21.47
2023-01-19T08:54:00.606Z,23.27
2023-01-19T08:56:29.407Z,19.40
2023-01-19T08:59:08.608Z,18.70
2023-01-19T09:01:38.629Z,20.03
2023-01-19T09:04:12.964Z,20.20
2023-01-19T09:06:41.877Z,20.50
2023-01-19T09:09:14.019Z,21.40
2023-01-19T09:11:42.717Z,19.13
2023-01-19T09:14:12.441Z,18.87
2023-01-19T09:16:43.987Z,17.10
2023-01-19T09:19:13.049Z,20.30
2023-01-19T09:21:41.462Z,17.97
2023-01-19T09:24:10.034Z,17.63
2023-01-19T09:26:40.917Z,20.00
2023-01-19T09:29:09.137Z,19.90
2023-01-19T09:31:40.644Z,23.97
2023-01-19T09:34:11.402Z,20.13
2023-01-19T09:36:40.517Z,22.73
2023-01-19T09:39:09.525Z,15.83
2023-01-19T09:41:41.540Z,19.83
2023-01-19T09:44:18.864Z,19.43
2023-01-19T09:46:47.022Z,21.50
2023-01-19T09:49:17.834Z,17.77
2023-01-19T09:51:50.259Z,18.77
2023-01-19T09:54:21.527Z,17.50
2023-01-19T09:56:52.992Z,16.93
2023-01-19T09:59:29.385Z,19.97
2023-01-19T10:02:26.360Z,18.13
2023-01-19T10:05:01.740Z,16.27
2023-01-19T10:07:42.461Z,19.37
2023-01-19T10:10:22.352Z,17.27
2023-01-19T10:13:12.992Z,70.40
2023-01-19T10:15:56.144Z,22.27
2023-01-19T10:18:31.140Z,21.17
2023-01-19T10:21:06.101Z,23.87
2023-01-19T10:23:41.393Z,18.73
2023-01-19T10:26:17.242Z,17.73
2023-01-19T10:28:52.988Z,18.23
2023-01-19T10:31:25.051Z,18.90
2023-01-19T10:33:57.620Z,30.13
2023-01-19T10:36:31.013Z,24.00
2023-01-19T10:39:01.112Z,22.47
2023-01-19T10:41:37.336Z,19.63
2023-01-19T10:44:09.868Z,17.13
2023-01-19T10:46:44.926Z,18.13
2023-01-19T10:49:28.403Z,17.27
2023-01-19T10:51:58.644Z,15.80
2023-01-19T10:54:29.407Z,14.43
2023-01-19T10:57:07.137Z,39.33
2023-01-19T10:59:39.808Z,11.17
2023-01-19T11:02:19.627Z,11.87
2023-01-19T11:04:50.114Z,12.30
2023-01-19T11:07:23.974Z,11.37
2023-01-19T11:10:23.032Z,10.00
2023-01-19T11:13:02.928Z,10.57
2023-01-19T11:15:35.918Z,10.97
2023-01-19T11:18:07.110Z,11.87
2023-01-19T11:20:52.687Z,12.20
2023-01-19T11:23:27.623Z,9.47
2023-01-19T11:25:59.141Z,11.27
2023-01-19T11:28:34.107Z,13.13
2023-01-19T11:31:20.878Z,10.93
2023-01-19T11:33:52.188Z,10.10
2023-01-19T11:36:23.221Z,8.47
2023-01-19T11:38:53.974Z,10.20
2023-01-19T11:41:24.493Z,9.00
2023-01-19T11:43:58.163Z,9.70
2023-01-19T11:46:34.875Z,9.40
2023-01-19T11:49:12.078Z,11.10
2023-01-19T11:51:51.207Z,9.10
2023-01-19T11:54:24.567Z,9.80
2023-01-19T11:56:55.583Z,10.30
2023-01-19T11:59:25.084Z,13.67
2023-01-19T12:01:59.546Z,11.83
2023-01-19T12:04:31.986Z,9.70
2023-01-19T12:07:07.114Z,10.43
2023-01-19T12:09:42.738Z,10.23
2023-01-19T12:12:27.331Z,9.90
2023-01-19T12:15:01.260Z,8.33
2023-01-19T12:17:35.492Z,10.03
2023-01-19T12:20:16.156Z,9.20
2023-01-19T12:22:51.547Z,9.00
2023-01-19T12:25:24.469Z,7.90
2023-01-19T12:27:55.189Z,10.70
2023-01-19T12:30:26.378Z,8.93
2023-01-19T12:33:23.116Z,8.30
2023-01-19T12:36:01.145Z,7.17
2023-01-19T12:38:53.228Z,12.10
2023-01-19T12:41:24.945Z,6.87
2023-01-19T12:44:19.199Z,7.30
2023-01-19T12:46:49.879Z,6.70
2023-01-19T12:49:26.618Z,8.97
2023-01-19T12:52:11.688Z,9.37
2023-01-19T12:54:43.651Z,9.60
2023-01-19T12:57:22.526Z,15.70
2023-01-19T12:59:57.709Z,6.20
2023-01-19T13:02:47.762Z,8.10
2023-01-19T13:05:27.586Z,8.90
2023-01-19T13:08:19.665Z,9.10
2023-01-19T13:11:14.867Z,11.80
2023-01-19T13:13:45.236Z,7.57
2023-01-19T13:16:51.355Z,8.57
2023-01-19T13:19:25.552Z,11.27
2023-01-19T13:21:55.604Z,12.40
2023-01-19T13:24:26.449Z,16.03
2023-01-19T13:26:57.624Z,16.70
2023-01-19T13:29:31.557Z,36.90
2023-01-19T13:32:03.677Z,9.70
2023-01-19T13:34:36.249Z,8.10
2023-01-19T13:37:06.409Z,10.47
2023-01-19T13:39:38.593Z,8.57
2023-01-19T13:42:14.327Z,11.53
2023-01-19T13:44:52.931Z,12.13
2023-01-19T13:47:25.417Z,11.60
2023-01-19T13:49:59.904Z,11.17
2023-01-19T13:52:35.014Z,9.47
2023-01-19T13:55:09.694Z,11.93
2023-01-19T13:57:43.040Z,12.90
2023-01-19T14:00:19.260Z,12.03
2023-01-19T14:03:00.455Z,14.73
2023-01-19T14:05:32.677Z,11.33
2023-01-19T14:08:08.225Z,9.53
2023-01-19T14:10:40.940Z,7.97
2023-01-19T14:13:16.626Z,9.13
2023-01-19T14:15:48.624Z,9.53
2023-01-19T14:18:28.941Z,8.70
2023-01-19T14:21:02.736Z,8.60
2023-01-19T14:23:45.797Z,8.70
2023-01-19T14:26:43.253Z,10.10
2023-01-19T14:29:24.853Z,9.37
2023-01-19T14:32:05.170Z,10.27
2023-01-19T14:34:39.293Z,8.03
2023-01-19T14:37:16.868Z,8.73
2023-01-19T14:39:52.006Z,11.20
2023-01-19T14:42:28.273Z,11.57
2023-01-19T14:45:01.505Z,8.60
2023-01-19T14:47:35.636Z,9.70
2023-01-19T14:50:18.882Z,9.33
2023-01-19T14:52:53.699Z,11.43
2023-01-19T14:55:27.707Z,10.87
2023-01-19T14:57:56.639Z,11.47
2023-01-19T15:00:26.589Z,9.37
2023-01-19T15:02:54.718Z,10.93
2023-01-19T15:05:23.220Z,9.77
2023-01-19T15:07:52.760Z,11.70
2023-01-19T15:10:25.632Z,12.67
2023-01-19T15:12:56.027Z,13.43
2023-01-19T15:15:28.763Z,12.40
2023-01-19T15:17:57.417Z,11.87
2023-01-19T15:20:27.004Z,13.80
2023-01-19T15:23:03.344Z,12.60
2023-01-19T15:25:33.398Z,11.53
2023-01-19T15:28:04.303Z,10.47
2023-01-19T15:30:33.804Z,12.30
2023-01-19T15:33:02.586Z,11.10
2023-01-19T15:35:38.508Z,20.73
2023-01-19T15:38:06.670Z,18.47
2023-01-19T15:40:36.817Z,18.67
2023-01-19T15:43:05.253Z,16.67
2023-01-19T15:45:36.923Z,17.80
2023-01-19T15:48:07.295Z,20.37
2023-01-19T15:50:39.125Z,21.40
2023-01-19T15:53:09.580Z,22.13
2023-01-19T15:55:39.390Z,17.93
2023-01-19T15:58:07.728Z,18.00
2023-01-19T16:00:36.720Z,17.77
2023-01-19T16:03:05.451Z,18.00
2023-01-19T16:05:42.520Z,16.87
2023-01-19T16:08:12.041Z,22.87
2023-01-19T16:10:42.427Z,20.87
2023-01-19T16:13:13.588Z,21.60
2023-01-19T16:15:42.749Z,17.80
2023-01-19T16:18:10.934Z,22.60
2023-01-19T16:20:39.324Z,20.57
2023-01-19T16:23:15.119Z,23.10
2023-01-19T16:25:45.711Z,20.77
2023-01-19T16:28:14.036Z,24.90
2023-01-19T16:30:42.352Z,24.50
2023-01-19T16:33:13.680Z,24.17
2023-01-19T16:35:42.146Z,19.33
2023-01-19T16:38:10.474Z,23.93
2023-01-19T16:40:39.344Z,23.07
2023-01-19T16:43:09.025Z,22.57
2023-01-19T16:45:58.229Z,23.13
2023-01-19T16:48:31.838Z,24.23
2023-01-19T16:51:04.401Z,21.27
2023-01-19T16:53:34.886Z,23.17
2023-01-19T16:56:22.149Z,25.73
2023-01-19T16:58:54.759Z,21.97
2023-01-19T17:01:32.408Z,24.60
2023-01-19T17:04:06.899Z,24.90
2023-01-19T17:06:37.252Z,24.80
2023-01-19T17:09:09.629Z,28.57
2023-01-19T17:11:42.930Z,26.70
2023-01-19T17:14:25.516Z,25.30
2023-01-19T17:16:55.068Z,29.13
2023-01-19T17:19:23.864Z,28.07
2023-01-19T17:21:52.824Z,28.13
2023-01-19T17:24:24.086Z,37.37
2023-01-19T17:26:53.001Z,27.83
2023-01-19T17:29:22.893Z,30.40
2023-01-19T17:31:51.776Z,25.87
2023-01-19T17:34:20.332Z,27.63
2023-01-19T17:36:48.733Z,42.90
2023-01-19T17:39:18.620Z,28.07
2023-01-19T17:41:50.358Z,27.97
2023-01-19T17:44:18.808Z,26.37
2023-01-19T17:46:48.728Z,24.87
2023-01-19T17:49:17.080Z,28.73
2023-01-19T17:51:45.631Z,27.90
2023-01-19T17:54:14.543Z,42.00
2023-01-19T17:56:42.830Z,36.23
2023-01-19T17:59:11.139Z,32.00
2023-01-19T18:01:40.748Z,35.93
2023-01-19T18:04:10.737Z,86.10
2023-01-19T18:06:39.645Z,36.20
2023-01-19T18:09:08.337Z,32.70
2023-01-19T18:11:36.789Z,31.63
2023-01-19T18:14:06.836Z,32.57
2023-01-19T18:16:36.124Z,27.67
2023-01-19T18:19:05.405Z,34.00
2023-01-19T18:21:37.534Z,32.30
2023-01-19T18:24:07.676Z,34.00
2023-01-19T18:26:40.288Z,36.20
2023-01-19T18:29:08.808Z,40.40
2023-01-19T18:31:37.325Z,37.43
2023-01-19T18:34:06.358Z,39.80
2023-01-19T18:36:37.444Z,42.60
2023-01-19T18:39:06.204Z,41.20
2023-01-19T18:41:37.212Z,42.90
2023-01-19T18:44:05.393Z,42.77
2023-01-19T18:46:34.022Z,40.30
2023-01-19T18:49:03.275Z,41.60
2023-01-19T18:51:32.601Z,36.40
2023-01-19T18:54:02.231Z,33.23
2023-01-19T18:56:30.483Z,35.43
2023-01-19T18:58:59.048Z,37.33
2023-01-19T19:01:32.880Z,33.23
2023-01-19T19:04:02.066Z,37.30
2023-01-19T19:06:31.154Z,35.63
2023-01-19T19:09:00.047Z,33.27
2023-01-19T19:11:31.231Z,35.80
2023-01-19T19:14:01.432Z,39.10
2023-01-19T19:16:30.423Z,43.40
2023-01-19T19:19:00.770Z,38.00
2023-01-19T19:21:29.375Z,69.77
2023-01-19T19:24:00.211Z,52.23
2023-01-19T19:26:30.423Z,62.60
2023-01-19T19:28:59.742Z,57.30
2023-01-19T19:31:30.393Z,39.93
2023-01-19T19:34:00.108Z,62.47
2023-01-19T19:36:30.003Z,62.57
2023-01-19T19:39:00.432Z,84.10
2023-01-19T19:41:32.473Z,231.83
2023-01-19T19:44:03.856Z,50.93
2023-01-19T19:46:32.655Z,185.53
2023-01-19T19:49:00.909Z,70.57
2023-01-19T19:51:30.881Z,91.73
2023-01-19T19:54:01.040Z,90.07
2023-01-19T19:56:34.722Z,52.47
2023-01-19T19:59:03.285Z,80.90
2023-01-19T20:01:34.748Z,47.57
2023-01-19T20:04:08.667Z,41.63
2023-01-19T20:06:40.062Z,72.90
2023-01-19T20:09:12.949Z,61.03
2023-01-19T20:11:43.540Z,47.17
2023-01-19T20:14:16.403Z,68.63
2023-01-19T20:16:45.808Z,51.80
2023-01-19T20:19:14.162Z,45.17
2023-01-19T20:21:43.317Z,65.77
2023-01-19T20:24:14.805Z,44.03
2023-01-19T20:26:47.441Z,38.43
2023-01-19T20:29:20.661Z,41.27
2023-01-19T20:31:54.156Z,41.60
2023-01-19T20:34:28.011Z,41.67
2023-01-19T20:36:56.960Z,65.13
2023-01-19T20:39:26.493Z,43.27
2023-01-19T20:41:56.512Z,49.50
2023-01-19T20:44:26.945Z,62.37
2023-01-19T20:46:58.267Z,53.20
2023-01-19T20:49:29.098Z,48.07
2023-01-19T20:51:57.327Z,46.87
2023-01-19T20:54:30.349Z,42.93
2023-01-19T20:57:01.118Z,42.43
2023-01-19T20:59:29.398Z,43.30
2023-01-19T21:01:57.759Z,48.17
2023-01-19T21:04:26.233Z,47.33
2023-01-19T21:06:55.389Z,42.23
2023-01-19T21:09:23.770Z,46.97
2023-01-19T21:11:52.484Z,39.93
2023-01-19T21:14:25.025Z,43.73
2023-01-19T21:16:56.542Z,44.83
2023-01-19T21:19:24.659Z,41.50
2023-01-19T21:21:55.239Z,40.87
2023-01-19T21:24:23.694Z,40.03
2023-01-19T21:26:53.816Z,39.30
2023-01-19T21:29:23.612Z,39.93
2023-01-19T21:31:51.858Z,49.97
2023-01-19T21:34:20.342Z,43.40
2023-01-19T21:36:48.769Z,43.57
2023-01-19T21:39:17.526Z,40.30
2023-01-19T21:41:46.088Z,39.83
2023-01-19T21:44:15.753Z,40.10
2023-01-19T21:46:45.390Z,42.70
2023-01-19T21:49:18.404Z,42.40
2023-01-19T21:51:48.100Z,43.60
2023-01-19T21:54:16.494Z,40.10
2023-01-19T21:56:46.322Z,50.83
2023-01-19T21:59:16.196Z,50.57
2023-01-19T22:01:47.753Z,63.57
2023-01-19T22:04:16.768Z,99.43
2023-01-19T22:06:45.174Z,98.83
2023-01-19T22:09:13.730Z,43.53
2023-01-19T22:11:41.892Z,52.57
2023-01-19T22:14:11.558Z,108.77
2023-01-19T22:16:40.017Z,102.93
2023-01-19T22:19:14.636Z,119.13
2023-01-19T22:21:43.003Z,79.77
2023-01-19T22:24:12.349Z,48.13
2023-01-19T22:26:40.721Z,55.23
2023-01-19T22:29:11.404Z,41.27
2023-01-19T22:31:40.818Z,47.03
2023-01-19T22:34:11.033Z,48.17
2023-01-19T22:36:39.927Z,41.83
2023-01-19T22:39:11.145Z,90.50
2023-01-19T22:41:42.096Z,42.03
2023-01-19T22:44:12.749Z,40.53
2023-01-19T22:46:41.887Z,98.30
2023-01-19T22:49:16.952Z,45.63
2023-01-19T22:51:45.892Z,75.80
2023-01-19T22:54:14.819Z,57.53
2023-01-19T22:56:43.896Z,108.77
2023-01-19T22:59:12.280Z,87.10
2023-01-19T23:01:42.836Z,36.37
2023-01-19T23:04:15.122Z,60.27
2023-01-19T23:06:47.038Z,70.23
2023-01-19T23:09:16.551Z,62.20
2023-01-19T23:11:48.613Z,55.50
2023-01-19T23:14:19.132Z,107.30
2023-01-19T23:16:50.674Z,170.27
2023-01-19T23:19:20.642Z,79.23
2023-01-19T23:21:52.188Z,65.33
2023-01-19T23:24:20.497Z,90.57
2023-01-19T23:26:50.744Z,93.17
2023-01-19T23:29:19.806Z,137.83
2023-01-19T23:31:50.128Z,69.97
2023-01-19T23:34:20.030Z,135.30
2023-01-19T23:36:48.206Z,89.27
2023-01-19T23:39:18.265Z,39.97
2023-01-19T23:41:46.850Z,64.60
2023-01-19T23:44:15.597Z,56.20
2023-01-19T23:46:44.061Z,108.53
2023-01-19T23:49:13.099Z,35.43
2023-01-19T23:51:43.612Z,47.43
2023-01-19T23:54:12.362Z,77.73
2023-01-19T23:56:42.754Z,62.70
2023-01-19T23:59:12.706Z,97.67
